createdAt,value
2023-04-29T00:02:16.381Z,13.00
2023-04-29T00:04:43.120Z,11.07
2023-04-29T00:07:09.648Z,12.18
2023-04-29T00:09:37.557Z,14.60
2023-04-29T00:12:04.036Z,10.55
2023-04-29T00:14:30.497Z,12.98
2023-04-29T00:16:57.203Z,14.05
2023-04-29T00:19:23.775Z,11.27
2023-04-29T00:21:50.179Z,13.98
2023-04-29T00:24:16.627Z,13.25
2023-04-29T00:26:43.040Z,15.95
2023-04-29T00:29:09.441Z,12.02
2023-04-29T00:31:37.210Z,14.35
2023-04-29T00:34:03.875Z,10.77
2023-04-29T00:36:31.920Z,12.98
2023-04-29T00:38:59.275Z,17.63
2023-04-29T00:41:26.129Z,16.30
2023-04-29T00:43:53.011Z,13.90
2023-04-29T00:46:19.851Z,19.70
2023-04-29T00:48:46.321Z,16.95
2023-04-29T00:51:13.668Z,18.48
2023-04-29T00:53:41.697Z,16.92
2023-04-29T00:56:08.696Z,17.25
2023-04-29T00:58:36.371Z,15.65
2023-04-29T01:01:06.360Z,19.92
2023-04-29T01:03:33.065Z,18.85
2023-04-29T01:06:24.109Z,17.35
2023-04-29T01:09:27.037Z,18.65
2023-04-29T01:12:06.701Z,18.75
2023-04-29T01:14:34.705Z,21.67
2023-04-29T01:17:10.150Z,15.82
2023-04-29T01:19:50.558Z,19.05
2023-04-29T01:22:21.746Z,19.25
2023-04-29T01:27:27.706Z,18.63
2023-04-29T01:30:12.611Z,21.77
2023-04-29T01:33:03.464Z,20.35
2023-04-29T01:36:00.716Z,20.55
2023-04-29T01:38:39.581Z,22.23
2023-04-29T01:41:10.450Z,22.98
2023-04-29T01:43:38.949Z,21.05
2023-04-29T01:46:19.876Z,22.73
2023-04-29T01:48:47.545Z,17.90
2023-04-29T01:51:14.436Z,17.08
2023-04-29T01:53:41.280Z,18.88
2023-04-29T01:56:08.157Z,20.95
2023-04-29T01:58:48.941Z,22.55
2023-04-29T02:01:33.814Z,24.45
2023-04-29T02:04:00.429Z,24.35
2023-04-29T02:06:28.015Z,27.13
2023-04-29T02:08:58.987Z,26.33
2023-04-29T02:11:25.567Z,25.52
2023-04-29T02:13:54.779Z,29.58
2023-04-29T02:16:22.059Z,24.85
2023-04-29T02:18:58.090Z,26.00
2023-04-29T02:21:24.533Z,27.20
2023-04-29T02:23:51.592Z,25.13
2023-04-29T02:26:18.006Z,24.40
2023-04-29T02:28:44.517Z,29.63
2023-04-29T02:31:10.965Z,27.10
2023-04-29T02:33:37.388Z,28.50
2023-04-29T02:36:04.188Z,26.70
2023-04-29T02:38:30.590Z,32.20
2023-04-29T02:40:57.143Z,29.55
2023-04-29T02:43:24.045Z,26.80
2023-04-29T02:45:50.490Z,28.20
2023-04-29T02:48:17.039Z,30.15
2023-04-29T02:50:43.499Z,27.60
2023-04-29T02:53:09.950Z,26.73
2023-04-29T02:55:36.516Z,27.95
2023-04-29T02:58:07.748Z,35.42
2023-04-29T03:00:34.192Z,37.28
2023-04-29T03:03:01.682Z,32.00
2023-04-29T03:05:28.386Z,34.42
2023-04-29T03:07:54.939Z,29.73
2023-04-29T03:10:21.741Z,41.13
2023-04-29T03:12:48.165Z,37.65
2023-04-29T03:15:15.671Z,40.47
2023-04-29T03:17:42.516Z,36.85
2023-04-29T03:20:10.619Z,36.97
2023-04-29T03:22:37.086Z,38.55
2023-04-29T03:25:04.477Z,41.13
2023-04-29T03:27:30.919Z,37.55
2023-04-29T03:29:57.548Z,39.95
2023-04-29T03:32:24.236Z,44.08
2023-04-29T03:34:51.122Z,44.78
2023-04-29T03:37:31.574Z,41.15
2023-04-29T03:40:12.216Z,44.95
2023-04-29T03:42:39.773Z,44.47
2023-04-29T03:45:07.042Z,51.70
2023-04-29T03:47:33.616Z,48.50
2023-04-29T03:50:00.675Z,49.75
2023-04-29T03:52:27.217Z,51.17
2023-04-29T03:54:59.246Z,47.20
2023-04-29T03:57:25.699Z,53.10
2023-04-29T03:59:53.656Z,50.20
2023-04-29T04:02:21.457Z,48.75
2023-04-29T04:04:48.218Z,51.35
2023-04-29T04:07:14.928Z,48.72
2023-04-29T04:10:07.766Z,52.85
2023-04-29T04:12:34.612Z,55.28
2023-04-29T04:15:01.277Z,55.53
2023-04-29T04:17:27.938Z,57.83
2023-04-29T04:19:54.585Z,55.60
2023-04-29T04:22:21.131Z,60.47
2023-04-29T04:25:04.606Z,54.38
2023-04-29T04:27:31.210Z,54.22
2023-04-29T04:30:01.132Z,55.45
2023-04-29T04:32:31.589Z,52.42
2023-04-29T04:34:58.532Z,57.60
2023-04-29T04:37:26.009Z,64.78
2023-04-29T04:39:55.992Z,67.65
2023-04-29T04:42:23.350Z,63.40
2023-04-29T04:44:53.915Z,65.75
2023-04-29T04:47:30.688Z,61.33
2023-04-29T04:50:04.380Z,67.65
2023-04-29T04:52:30.955Z,69.10
2023-04-29T04:55:15.202Z,74.35
2023-04-29T04:57:44.551Z,71.13
2023-04-29T05:00:11.909Z,71.35
2023-04-29T05:02:38.571Z,73.68
2023-04-29T05:05:05.728Z,67.15
2023-04-29T05:07:36.003Z,72.20
2023-04-29T05:10:06.470Z,69.97
2023-04-29T05:12:36.258Z,67.38
2023-04-29T05:15:04.400Z,78.03
2023-04-29T05:17:31.796Z,72.82
2023-04-29T05:19:58.881Z,74.47
2023-04-29T05:22:25.488Z,73.70
2023-04-29T05:24:52.873Z,68.88
2023-04-29T05:27:20.016Z,73.88
2023-04-29T05:29:47.180Z,69.63
2023-04-29T05:32:13.755Z,72.57
2023-04-29T05:34:40.406Z,72.80
2023-04-29T05:37:06.861Z,79.03
2023-04-29T05:39:41.721Z,79.30
2023-04-29T05:42:13.419Z,72.65
2023-04-29T05:44:47.095Z,71.43
2023-04-29T05:47:13.540Z,73.40
2023-04-29T05:49:40.344Z,67.35
2023-04-29T05:52:07.198Z,71.10
2023-04-29T05:54:39.376Z,72.38
2023-04-29T05:57:06.618Z,68.97
2023-04-29T05:59:33.698Z,64.13
2023-04-29T06:04:30.783Z,73.13
2023-04-29T06:07:09.209Z,67.78
2023-04-29T06:09:48.394Z,64.90
2023-04-29T06:12:14.881Z,63.47
2023-04-29T06:14:43.351Z,63.40
2023-04-29T06:17:11.344Z,67.88
2023-04-29T06:19:38.106Z,60.47
2023-04-29T06:22:04.560Z,60.60
2023-04-29T06:24:31.923Z,51.72
2023-04-29T06:26:58.523Z,57.42
2023-04-29T06:29:26.225Z,54.95
2023-04-29T06:31:53.131Z,53.88
2023-04-29T06:34:19.912Z,48.33
2023-04-29T06:37:09.226Z,45.55
2023-04-29T06:39:59.674Z,44.77
2023-04-29T06:42:45.309Z,42.53
2023-04-29T06:45:31.776Z,46.40
2023-04-29T06:48:04.523Z,46.08
2023-04-29T06:50:49.790Z,53.55
2023-04-29T06:53:16.207Z,61.15
2023-04-29T06:55:42.660Z,67.13
2023-04-29T06:58:09.079Z,63.83
2023-04-29T07:00:35.710Z,57.47
2023-04-29T07:03:02.660Z,57.78
2023-04-29T07:05:29.242Z,51.92
2023-04-29T07:07:55.680Z,55.42
2023-04-29T07:10:22.121Z,60.92
2023-04-29T07:12:48.549Z,51.25
2023-04-29T07:15:15.285Z,51.70
2023-04-29T07:17:41.768Z,50.95
2023-04-29T07:20:08.873Z,49.33
2023-04-29T07:22:35.932Z,53.63
2023-04-29T07:25:02.542Z,50.75
2023-04-29T07:27:29.549Z,49.40
2023-04-29T07:29:56.835Z,42.85
2023-04-29T07:32:23.347Z,51.13
2023-04-29T07:34:49.920Z,42.45
2023-04-29T07:37:16.665Z,41.30
2023-04-29T07:39:43.076Z,41.33
2023-04-29T07:42:10.148Z,38.03
2023-04-29T07:44:36.602Z,40.78
2023-04-29T07:47:03.023Z,38.40
2023-04-29T07:49:29.454Z,35.55
2023-04-29T07:51:55.981Z,35.92
2023-04-29T07:54:22.552Z,34.92
2023-04-29T07:56:49.172Z,29.50
2023-04-29T07:59:15.782Z,29.88
2023-04-29T08:01:42.557Z,35.97
2023-04-29T08:04:09.165Z,28.98
2023-04-29T08:06:45.455Z,26.25
2023-04-29T08:09:12.244Z,24.00
2023-04-29T08:11:43.150Z,28.87
2023-04-29T08:14:12.432Z,28.30
2023-04-29T08:16:39.251Z,25.48
2023-04-29T08:19:05.746Z,25.83
2023-04-29T08:21:32.318Z,28.17
2023-04-29T08:23:58.739Z,32.50
2023-04-29T08:26:25.416Z,30.63
2023-04-29T08:28:51.851Z,29.88
2023-04-29T08:31:20.121Z,31.80
2023-04-29T08:33:46.606Z,32.38
2023-04-29T08:36:13.032Z,38.10
2023-04-29T08:38:39.660Z,36.28
2023-04-29T08:41:09.672Z,41.42
2023-04-29T08:43:42.567Z,47.53
2023-04-29T08:46:10.036Z,46.08
2023-04-29T08:48:37.789Z,53.42
2023-04-29T08:51:04.566Z,53.20
2023-04-29T08:53:31.089Z,51.53
2023-04-29T08:56:01.975Z,58.25
2023-04-29T08:58:30.074Z,59.03
2023-04-29T09:00:57.041Z,64.10
2023-04-29T09:04:10.175Z,58.08
2023-04-29T09:06:36.652Z,66.18
2023-04-29T09:09:03.770Z,65.57
2023-04-29T09:11:30.933Z,57.30
2023-04-29T09:14:04.481Z,61.60
2023-04-29T09:16:31.112Z,63.10
2023-04-29T09:18:57.604Z,54.58
2023-04-29T09:21:28.932Z,51.08
2023-04-29T09:23:57.933Z,54.10
2023-04-29T09:26:25.454Z,55.20
2023-04-29T09:29:07.844Z,56.67
2023-04-29T09:31:34.314Z,57.97
2023-04-29T09:34:00.833Z,54.83
2023-04-29T09:36:46.847Z,62.80
2023-04-29T09:39:16.543Z,53.90
2023-04-29T09:42:02.664Z,50.90
2023-04-29T09:44:33.936Z,56.30
2023-04-29T09:47:06.628Z,55.03
2023-04-29T09:49:39.745Z,58.58
2023-04-29T09:52:11.612Z,60.15
2023-04-29T09:54:40.758Z,57.47
2023-04-29T09:57:09.299Z,56.00
2023-04-29T09:59:37.791Z,59.95
2023-04-29T10:02:15.546Z,55.65
2023-04-29T10:04:45.092Z,64.50
2023-04-29T10:07:16.110Z,63.42
2023-04-29T10:12:11.037Z,63.17
2023-04-29T10:14:45.446Z,60.08
2023-04-29T10:17:18.340Z,64.43
2023-04-29T10:19:54.256Z,66.93
2023-04-29T10:22:36.181Z,64.63
2023-04-29T10:25:05.930Z,68.30
2023-04-29T10:27:34.914Z,67.18
2023-04-29T10:30:04.911Z,66.60
2023-04-29T10:32:49.303Z,59.40
2023-04-29T10:35:23.235Z,61.22
2023-04-29T10:37:50.540Z,62.22
2023-04-29T10:40:18.403Z,60.97
2023-04-29T10:42:49.952Z,56.55
2023-04-29T10:45:27.602Z,56.88
2023-04-29T10:48:05.343Z,53.50
2023-04-29T10:50:33.398Z,63.60
2023-04-29T10:53:04.682Z,56.70
2023-04-29T10:55:31.831Z,57.45
2023-04-29T10:57:58.307Z,60.72
2023-04-29T11:00:29.242Z,51.58
2023-04-29T11:02:59.542Z,53.35
2023-04-29T11:05:37.129Z,51.17
2023-04-29T11:08:23.112Z,49.97
2023-04-29T11:10:54.052Z,48.10
2023-04-29T11:13:31.204Z,46.42
2023-04-29T11:16:11.860Z,52.80
2023-04-29T11:19:09.946Z,46.75
2023-04-29T11:21:37.525Z,47.83
2023-04-29T11:24:06.496Z,40.90
2023-04-29T11:26:36.652Z,41.45
2023-04-29T11:29:04.745Z,35.63
2023-04-29T11:31:32.347Z,41.20
2023-04-29T11:33:59.803Z,38.25
2023-04-29T11:36:27.456Z,35.25
2023-04-29T11:38:54.053Z,35.80
2023-04-29T11:41:21.911Z,36.60
2023-04-29T11:43:56.710Z,34.00
2023-04-29T11:46:23.290Z,34.75
2023-04-29T11:48:50.325Z,35.38
2023-04-29T11:51:18.893Z,33.95
2023-04-29T11:53:45.558Z,33.28
2023-04-29T11:56:12.352Z,38.25
2023-04-29T11:58:39.289Z,31.17
2023-04-29T12:01:05.923Z,37.90
2023-04-29T12:03:33.976Z,34.97
2023-04-29T12:06:01.939Z,33.80
2023-04-29T12:08:29.700Z,34.70
2023-04-29T12:10:58.576Z,31.90
2023-04-29T12:13:28.183Z,32.58
2023-04-29T12:15:56.168Z,32.92
2023-04-29T12:18:23.448Z,32.47
2023-04-29T12:20:51.477Z,31.00
2023-04-29T12:23:19.892Z,30.25
2023-04-29T12:25:54.196Z,28.27
2023-04-29T12:28:21.107Z,27.10
2023-04-29T12:30:48.897Z,28.02
2023-04-29T12:33:29.427Z,21.25
2023-04-29T12:35:57.841Z,23.58
2023-04-29T12:38:29.008Z,19.38
2023-04-29T12:41:01.274Z,23.83
2023-04-29T12:43:34.053Z,16.73
2023-04-29T12:46:04.140Z,17.42
2023-04-29T12:48:33.527Z,17.53
2023-04-29T12:51:01.375Z,20.05
2023-04-29T12:53:29.933Z,13.23
2023-04-29T12:55:56.820Z,10.55
2023-04-29T12:58:24.011Z,13.98
2023-04-29T13:00:50.483Z,9.50
2023-04-29T13:03:18.338Z,10.98
2023-04-29T13:05:48.513Z,8.52
2023-04-29T13:08:15.335Z,9.57
2023-04-29T13:10:42.821Z,8.18
2023-04-29T13:13:11.842Z,7.38
2023-04-29T13:15:39.206Z,9.52
2023-04-29T13:18:05.925Z,10.05
2023-04-29T13:20:40.952Z,12.98
2023-04-29T13:23:08.478Z,11.77
2023-04-29T13:25:34.953Z,13.20
2023-04-29T13:28:01.448Z,13.32
2023-04-29T13:30:27.861Z,20.48
2023-04-29T13:32:57.454Z,14.45
2023-04-29T13:35:29.505Z,15.30
2023-04-29T13:37:56.455Z,15.65
2023-04-29T13:40:22.890Z,15.38
2023-04-29T13:42:50.753Z,17.50
2023-04-29T13:45:28.600Z,14.52
2023-04-29T13:48:07.565Z,16.83
2023-04-29T13:53:41.302Z,19.25
2023-04-29T13:56:34.717Z,18.25
2023-04-29T14:01:48.107Z,19.63
2023-04-29T14:04:03.206Z,24.48
2023-04-29T14:06:32.425Z,13.50
2023-04-29T14:09:00.536Z,13.70
2023-04-29T14:11:28.646Z,22.08
2023-04-29T14:13:55.063Z,16.20
2023-04-29T14:16:21.681Z,15.55
2023-04-29T14:18:48.071Z,14.20
2023-04-29T14:21:14.552Z,13.68
2023-04-29T14:23:41.473Z,14.88
2023-04-29T14:26:26.520Z,12.77
2023-04-29T14:28:57.987Z,13.80
2023-04-29T14:31:28.817Z,13.67
2023-04-29T14:36:22.594Z,17.10
2023-04-29T14:38:49.242Z,11.65
2023-04-29T14:41:15.926Z,11.30
2023-04-29T14:43:42.715Z,12.80
2023-04-29T14:46:09.370Z,15.43
2023-04-29T14:48:36.022Z,10.57
2023-04-29T14:51:02.447Z,12.00
2023-04-29T14:53:28.867Z,12.93
2023-04-29T14:55:55.335Z,11.77
2023-04-29T14:58:21.752Z,13.00
2023-04-29T15:00:49.256Z,12.05
2023-04-29T15:03:22.020Z,15.68
2023-04-29T15:05:51.973Z,13.43
2023-04-29T15:08:19.476Z,12.88
2023-04-29T15:10:50.064Z,13.98
2023-04-29T15:13:16.586Z,12.35
2023-04-29T15:15:43.011Z,12.73
2023-04-29T15:18:09.569Z,17.58
2023-04-29T15:20:37.578Z,13.05
2023-04-29T15:23:05.456Z,12.45
2023-04-29T15:25:36.241Z,11.15
2023-04-29T15:28:05.723Z,14.00
2023-04-29T15:30:32.391Z,15.63
2023-04-29T15:32:58.865Z,13.70
2023-04-29T15:35:25.353Z,9.55
2023-04-29T15:37:51.746Z,14.82
2023-04-29T15:40:18.227Z,16.15
2023-04-29T15:42:44.640Z,15.52
2023-04-29T15:45:11.609Z,16.08
2023-04-29T15:47:38.210Z,16.40
2023-04-29T15:50:05.116Z,13.02
2023-04-29T15:52:31.506Z,13.95
2023-04-29T15:54:58.366Z,16.42
2023-04-29T15:57:25.829Z,14.65
2023-04-29T15:59:52.483Z,15.65
2023-04-29T16:02:20.399Z,14.52
2023-04-29T16:04:47.197Z,12.07
2023-04-29T16:07:13.654Z,11.15
2023-04-29T16:09:40.199Z,14.02
2023-04-29T16:12:06.755Z,14.15
2023-04-29T16:14:33.207Z,12.45
2023-04-29T16:17:00.471Z,12.75
2023-04-29T16:19:27.010Z,11.40
2023-04-29T16:21:53.433Z,13.70
2023-04-29T16:24:19.846Z,10.02
2023-04-29T16:26:48.013Z,11.73
2023-04-29T16:29:14.482Z,14.02
2023-04-29T16:31:40.936Z,9.95
2023-04-29T16:34:07.372Z,15.05
2023-04-29T16:36:33.785Z,8.82
2023-04-29T16:39:00.206Z,9.73
2023-04-29T16:41:26.632Z,13.52
2023-04-29T16:43:53.988Z,8.60
2023-04-29T16:46:20.492Z,8.90
2023-04-29T16:48:47.067Z,8.73
2023-04-29T16:51:13.457Z,11.38
2023-04-29T16:53:39.861Z,9.70
2023-04-29T16:56:06.273Z,10.10
2023-04-29T16:58:32.694Z,7.82
2023-04-29T17:00:59.280Z,8.93
2023-04-29T17:03:25.833Z,9.13
2023-04-29T17:05:52.613Z,8.13
2023-04-29T17:08:19.087Z,5.72
2023-04-29T17:10:45.542Z,7.78
2023-04-29T17:13:12.117Z,7.30
2023-04-29T17:15:38.530Z,12.48
2023-04-29T17:18:05.016Z,8.07
2023-04-29T17:20:31.622Z,7.47
2023-04-29T17:22:58.075Z,9.07
2023-04-29T17:25:24.480Z,6.72
2023-04-29T17:27:50.936Z,7.90
2023-04-29T17:30:17.346Z,5.93
2023-04-29T17:32:44.458Z,10.65
2023-04-29T17:35:11.579Z,5.68
2023-04-29T17:37:38.229Z,11.50
2023-04-29T17:40:05.206Z,6.70
2023-04-29T17:42:31.604Z,10.52
2023-04-29T17:44:58.007Z,6.28
2023-04-29T17:47:24.464Z,4.40
2023-04-29T17:49:51.859Z,7.00
2023-04-29T17:52:21.254Z,6.15
2023-04-29T17:54:48.608Z,6.40
2023-04-29T17:57:15.065Z,7.57
2023-04-29T17:59:41.554Z,6.80
2023-04-29T18:02:07.944Z,6.30
2023-04-29T18:04:34.466Z,6.43
2023-04-29T18:07:01.704Z,9.77
2023-04-29T18:09:28.175Z,5.38
2023-04-29T18:11:54.589Z,7.38
2023-04-29T18:14:21.392Z,8.30
2023-04-29T18:16:47.861Z,8.30
2023-04-29T18:19:14.311Z,6.65
2023-04-29T18:21:40.734Z,10.27
2023-04-29T18:24:07.141Z,8.88
2023-04-29T18:26:33.725Z,7.20
2023-04-29T18:29:00.150Z,7.63
2023-04-29T18:31:26.673Z,9.30
2023-04-29T18:33:53.114Z,6.35
2023-04-29T18:36:21.287Z,8.45
2023-04-29T18:38:47.785Z,6.10
2023-04-29T18:41:14.435Z,5.10
2023-04-29T18:43:41.257Z,7.25
2023-04-29T18:46:08.008Z,4.82
2023-04-29T18:48:35.972Z,6.63
2023-04-29T18:51:04.326Z,5.28
2023-04-29T18:53:31.740Z,9.45
2023-04-29T18:55:58.198Z,7.47
2023-04-29T18:58:26.680Z,7.90
2023-04-29T19:00:53.612Z,6.10
2023-04-29T19:03:20.542Z,6.43
2023-04-29T19:05:48.090Z,9.50
2023-04-29T19:08:16.365Z,8.25
2023-04-29T19:10:44.036Z,15.43
2023-04-29T19:13:11.134Z,11.90
2023-04-29T19:15:37.656Z,6.82
2023-04-29T19:18:04.919Z,6.85
2023-04-29T19:20:31.909Z,15.32
2023-04-29T19:22:58.351Z,6.25
2023-04-29T19:25:26.221Z,5.55
2023-04-29T19:27:53.117Z,14.60
2023-04-29T19:30:19.695Z,14.98
2023-04-29T19:32:46.616Z,12.25
2023-04-29T19:35:13.212Z,9.00
2023-04-29T19:37:40.319Z,7.95
2023-04-29T19:40:10.371Z,14.07
2023-04-29T19:42:37.419Z,9.57
2023-04-29T19:45:08.155Z,8.38
2023-04-29T19:47:34.843Z,8.98
2023-04-29T19:50:02.003Z,7.07
2023-04-29T19:52:29.679Z,5.50
2023-04-29T19:54:56.328Z,11.02
2023-04-29T19:57:22.782Z,6.95
2023-04-29T19:59:49.177Z,8.98
2023-04-29T20:02:15.752Z,9.98
2023-04-29T20:04:42.205Z,7.72
2023-04-29T20:07:08.608Z,10.63
2023-04-29T20:09:35.201Z,10.48
2023-04-29T20:12:02.732Z,11.60
2023-04-29T20:14:30.186Z,15.60
2023-04-29T20:16:59.674Z,12.07
2023-04-29T20:19:26.931Z,11.32
2023-04-29T20:21:53.685Z,11.32
2023-04-29T20:24:20.149Z,15.38
2023-04-29T20:26:46.589Z,11.00
2023-04-29T20:29:13.033Z,16.73
2023-04-29T20:31:39.480Z,9.10
2023-04-29T20:34:05.992Z,8.70
2023-04-29T20:36:32.433Z,7.93
2023-04-29T20:38:58.851Z,7.85
2023-04-29T20:41:27.923Z,7.55
2023-04-29T20:43:55.068Z,8.25
2023-04-29T20:46:23.563Z,7.05
2023-04-29T20:48:51.720Z,11.93
2023-04-29T20:51:18.157Z,9.55
2023-04-29T20:53:44.624Z,10.13
2023-04-29T20:56:11.111Z,6.85
2023-04-29T20:58:37.557Z,12.63
2023-04-29T21:01:04.039Z,7.22
2023-04-29T21:03:30.533Z,5.97
2023-04-29T21:05:57.110Z,7.35
2023-04-29T21:08:23.550Z,7.53
2023-04-29T21:10:49.967Z,9.80
2023-04-29T21:13:17.679Z,10.68
2023-04-29T21:15:45.850Z,7.85
2023-04-29T21:18:12.723Z,7.90
2023-04-29T21:20:39.217Z,11.57
2023-04-29T21:23:05.681Z,6.78
2023-04-29T21:25:32.151Z,9.57
2023-04-29T21:27:58.589Z,10.93
2023-04-29T21:30:25.909Z,10.52
2023-04-29T21:32:53.222Z,9.88
2023-04-29T21:35:19.728Z,10.38
2023-04-29T21:37:47.086Z,11.85
2023-04-29T21:40:14.374Z,10.88
2023-04-29T21:42:43.516Z,11.07
2023-04-29T21:45:12.801Z,12.57
2023-04-29T21:47:39.492Z,14.60
2023-04-29T21:50:07.702Z,13.85
2023-04-29T21:52:35.153Z,14.70
2023-04-29T21:55:03.423Z,11.95
2023-04-29T21:57:42.831Z,24.95
2023-04-29T22:00:20.645Z,20.17
2023-04-29T22:02:47.183Z,11.13
2023-04-29T22:05:13.622Z,13.00
2023-04-29T22:07:40.046Z,10.45
2023-04-29T22:10:07.046Z,19.00
2023-04-29T22:12:33.465Z,10.10
2023-04-29T22:14:59.874Z,11.38
2023-04-29T22:17:26.306Z,14.57
2023-04-29T22:19:53.007Z,14.75
2023-04-29T22:22:19.642Z,13.18
2023-04-29T22:24:46.062Z,12.27
2023-04-29T22:27:12.474Z,16.27
2023-04-29T22:29:39.371Z,12.48
2023-04-29T22:32:05.922Z,11.82
2023-04-29T22:34:32.375Z,18.42
2023-04-29T22:36:58.776Z,14.57
2023-04-29T22:39:25.258Z,13.73
2023-04-29T22:41:51.679Z,22.85
2023-04-29T22:44:18.082Z,14.57
2023-04-29T22:46:44.541Z,17.30
2023-04-29T22:49:10.967Z,14.45
2023-04-29T22:51:37.452Z,13.95
2023-04-29T22:54:03.926Z,13.05
2023-04-29T22:56:30.455Z,16.58
2023-04-29T22:58:56.900Z,11.65
2023-04-29T23:01:23.351Z,14.82
2023-04-29T23:03:49.778Z,13.00
2023-04-29T23:06:16.298Z,10.25
2023-04-29T23:08:44.483Z,14.35
2023-04-29T23:11:12.049Z,11.82
2023-04-29T23:13:39.243Z,11.18
2023-04-29T23:16:07.072Z,11.45
2023-04-29T23:18:34.494Z,9.07
2023-04-29T23:21:00.896Z,10.27
2023-04-29T23:23:27.293Z,11.50
2023-04-29T23:25:53.851Z,6.85
2023-04-29T23:28:20.887Z,8.23
2023-04-29T23:30:48.102Z,10.05
2023-04-29T23:33:14.649Z,11.02
2023-04-29T23:35:41.039Z,9.65
2023-04-29T23:38:07.598Z,10.90
2023-04-29T23:40:34.149Z,9.65
2023-04-29T23:43:00.629Z,11.18
2023-04-29T23:45:27.059Z,13.88
2023-04-29T23:47:53.518Z,7.13
2023-04-29T23:50:19.954Z,13.40
2023-04-29T23:52:46.389Z,16.25
2023-04-29T23:55:12.786Z,10.35
2023-04-29T23:57:39.202Z,9.27
